This is the latest recevied weather packets stored in our database for station/object KC3WWU. If no packets are shown the sender has not sent any weather packets the latest 1 day(s).
| Time | Temp. | Humidity | Pressure | Rain* | Wind** | Luminosity | Snow |
|---|---|---|---|---|---|---|---|
| 1778000610 | 23.33° C | 47% | 1006.6 hPa | 0 mm | 4.02 m/s, 260° | 860 W/m² | - |
| 1778000305 | 22.78° C | 48% | 1006.7 hPa | 0 mm | 2.68 m/s, 69° | 815 W/m² | - |
| 1778000001 | 21.67° C | 51% | 1006.6 hPa | 0 mm | 2.68 m/s, 320° | 448 W/m² | - |
| 1777999697 | 22.78° C | 48% | 1006.9 hPa | 0 mm | 0.89 m/s, 349° | 231 W/m² | - |
| 1777999394 | 21.67° C | 49% | 1006.7 hPa | 0 mm | 1.34 m/s, 339° | 849 W/m² | - |
| 1777999092 | 21.67° C | 49% | 1006.9 hPa | 0 mm | 2.68 m/s, 322° | 256 W/m² | - |
| 1777998790 | 21.67° C | 50% | 1006.9 hPa | 0 mm | 2.24 m/s, 320° | 412 W/m² | - |
| 1777998488 | 21.67° C | 50% | 1006.9 hPa | 0 mm | 3.13 m/s, 233° | 815 W/m² | - |
| 1777998184 | 21.11° C | 52% | 1006.8 hPa | 0 mm | 2.24 m/s, 293° | 370 W/m² | - |
| 1777997882 | 20.56° C | 52% | 1007.1 hPa | 0 mm | 1.79 m/s, 30° | 832 W/m² | - |
| 1777997579 | 20° C | 54% | 1007.3 hPa | 0 mm | 1.34 m/s, 46° | 767 W/m² | - |
| 1777997276 | 20° C | 56% | 1007 hPa | 0 mm | 1.79 m/s, 64° | 195 W/m² | - |
| 1777996974 | 20° C | 56% | 1006.9 hPa | 0 mm | 1.79 m/s, 352° | 184 W/m² | - |
| 1777996670 | 20° C | 56% | 1006.9 hPa | 0 mm | 0.89 m/s, 41° | 156 W/m² | - |
| 1777996366 | 20° C | 56% | 1007.4 hPa | 0 mm | 1.79 m/s, 47° | 149 W/m² | - |
| 1777996062 | 20° C | 57% | 1007.3 hPa | 0 mm | 1.34 m/s, 277° | 138 W/m² | - |
| 1777995759 | 20° C | 57% | 1007.2 hPa | 0 mm | 1.34 m/s, 41° | 127 W/m² | - |
| 1777995455 | 20° C | 57% | 1007.3 hPa | 0 mm | 1.34 m/s, 307° | 143 W/m² | - |
| 1777995153 | 20.56° C | 58% | 1007.3 hPa | 0 mm | 2.24 m/s, 327° | 256 W/m² | - |
| 1777994850 | 20.56° C | 58% | 1007.8 hPa | 0 mm | 1.34 m/s, 277° | 275 W/m² | - |
| 1777994546 | 20.56° C | 57% | 1007.9 hPa | 0 mm | 2.68 m/s, 0° | 448 W/m² | - |
| 1777994246 | 20.56° C | 58% | 1007.9 hPa | 0 mm | 4.92 m/s, 19° | 586 W/m² | - |
| 1777993943 | 20° C | 59% | 1008 hPa | 0 mm | 3.13 m/s, 259° | 251 W/m² | - |
| 1777993641 | 19.44° C | 60% | 1008 hPa | 0 mm | 1.34 m/s, 129° | 299 W/m² | - |
| 1777993338 | 19.44° C | 61% | 1007.9 hPa | 0 mm | 1.79 m/s, 262° | 152 W/m² | - |
* Rain latest hour (hover to see other rain measurements)
** Current wind speed in m/s (hover to see current wind gust speed)